Scroll down
FLIGHT INFORMATION
Air New Zealand

ANZ29

At Arrival Gate

KDFW
 NZAA
DATE: 2021-11-12
GATE:  -
GATE DEPARTURE: 14:36
TAKEOFF: 14:50
DATE: 2021-11-13
GATE:  -
LANDING: 04:50
GATE ARRIVAL: 05:01
FLIGHT DATA
Crew: 
Speed: 
931 kph
Altitude: 
36,078 ft
Stage Length: 
11,985.6 km
Block Time: 
14.3 hrs
Flight Time: 
14 hrs
Fuel Used: 
118,763 kg
Cleared Route: KDFW FUZ ABI LOWGO FST CUU VILPO OTOSO PELNI VINVA LOKRO IKNOR CEN OLULI ALNUB VOGIL LTO 20N20 15N25 10N30 04N35 REVRO MUPOD 10W50 15W56 16W57 URKEP 25W67 MEXIP AKLOM NZAA
TRACK DATA
50,000 ft 1,000 kts
AIRCRAFT INFO AND CUMULATIVE STATS
Aircraft Type: 
B77W
Registration: 
SELCAL: 
BKFH
MSN/LN: 
38405 / 902
Operator: 
Total Flights: 
2
Total Block Time: 
27.9 hrs
Total Flight Time: 
27.2 hrs
Total Fuel Used: 
226,115 kg
DATALINK LOG | Newest first | Current as of: 2022-10-05 22:15:27
LABEL SEQUENCE CONTENT Dn/Up
QD080805:01 53.6▼ Dn
QC565704:50▼ Dn
2U3846NZAA 130600Z AUTO 31011KT 280V340 9999 OVC007/// 20/20 Q1002 NOSIG▲ Up
2S4344NZAA▼ Dn
2U1100NZAA 130530Z AUTO 32013KT 9999 OVC007/// 20/20 Q1002 NOSIG▲ Up
2S1716NZAA▼ Dn
2U2839NZAA 130500Z AUTO 32015KT 9999 OVC009/// 21/20 Q1002 NOSIG▲ Up
2S3335NZAA▼ Dn
2U5035NZAA 130330Z AUTO 32013KT 9999 OVC010/// 21/20 Q1002 TEMPO BKN008▲ Up
2S5550NZAA▼ Dn
QB550314:50▼ Dn
QA415114:36 315.6▼ Dn
2U4149KDFW 121453Z 34011KT 10SM FEW005 FEW300 13/04 A3022 RMK AO2 PK WND 36029/1400 WSHFT 1357 SLP228 FROPA FU FEW005 SW T01330044 530▲ Up
2S4556KDFW▼ Dn
Q03950[LINK ACK]▲ Up
Q03950[LINK TEST]▼ Dn


AIRCRAFT HISTORY
FLIGHT DATE FLIGHT NO. ORIGIN DESTINATION CLEARED ROUTE BLOCK TIME FLIGHT TIME FUEL USED PILOT
2021-11-12ANZ29KDFW NZAA KDFW FUZ ABI LOWGO FST CUU VILPO OTOSO PELNI VINVA LOKRO IKNOR CEN OLULI ALNUB VOGIL LTO 20N20 15N25 10N30 04N35 REVRO MUPOD 10W50 15W56 16W57 URKEP 25W67 MEXIP AKLOM NZAA14.3 hrs14 hrs261,828 lbRyan Syferd
2021-01-25ANZ125NZAA KDFW NZAA AKLOM 32W77 30W74 27W70 23W65 20W62 15W58 1346S15700W 10W54 05W50 00N46 0330N14312W 05N42 09N38 15N30 21N20 LTO VOGIL ALNUB OLULI CEN IKNOR LOKRO VINVA PELNI OTOSO VILPO CUU VIKMU KIPAL CFHBX ALKEM MRF VUYUP FST GEEKY KDFW13.5 hrs13.2 hrs236,671 lbCharles Harris